Valentines, Virginia
Current Conditions -  °F | °C
As of 1:15 PM on Thursday 30 Oct 2014 (Local Time) from KAVC Reporting Station
Scattered Clouds Scattered Clouds  
Wind Chill: 63°   Ceiling: Unl
Heat Index: 63°   Visibility: 10mi
Dew Point: 37°   Wind: 0mph
Humidity: 39%   Direction: NA
Pressure: 30.07"   Gusts: NA
Location:  36.56°N, 77.85°W
Report Text: KAVC 301715Z AUTO 00000KT 10SM SCT044 17/03 A3007 RMK AO2
Loading
Personal Weather Stations






























Interactive Weather Map
Tropical Storm Tracking
New forecast layout! Learn more

10-Day Weather Forecast

Advertisements
Track Severe Weather on mobile